createdAt,value
2022-09-21T00:00:51.879Z,19.98
2022-09-21T00:03:18.857Z,19.63
2022-09-21T00:05:45.688Z,19.55
2022-09-21T00:08:13.910Z,19.92
2022-09-21T00:10:40.387Z,19.98
2022-09-21T00:13:08.304Z,20.08
2022-09-21T00:15:34.929Z,20.67
2022-09-21T00:18:01.788Z,20.23
2022-09-21T00:20:29.134Z,21.38
2022-09-21T00:22:55.562Z,21.60
2022-09-21T00:25:21.925Z,20.77
2022-09-21T00:27:51.154Z,20.98
2022-09-21T00:30:18.189Z,21.27
2022-09-21T00:32:44.698Z,23.52
2022-09-21T00:35:11.053Z,22.60
2022-09-21T00:37:37.554Z,23.30
2022-09-21T00:40:04.675Z,22.42
2022-09-21T00:42:34.136Z,22.35
2022-09-21T00:45:01.092Z,22.73
2022-09-21T00:47:40.536Z,24.50
2022-09-21T00:50:11.884Z,24.87
2022-09-21T00:52:43.731Z,23.67
2022-09-21T00:55:23.815Z,24.73
2022-09-21T00:57:56.682Z,24.10
2022-09-21T01:00:23.368Z,24.40
2022-09-21T01:02:49.800Z,23.40
2022-09-21T01:05:16.147Z,22.42
2022-09-21T01:07:46.198Z,22.80
2022-09-21T01:10:17.524Z,22.08
2022-09-21T01:12:50.002Z,22.75
2022-09-21T01:15:36.577Z,22.10
2022-09-21T01:18:17.984Z,22.02
2022-09-21T01:21:09.022Z,21.90
2022-09-21T01:23:38.400Z,22.73
2022-09-21T01:26:29.791Z,22.70
2022-09-21T01:29:02.182Z,23.70
2022-09-21T01:31:35.190Z,22.77
2022-09-21T01:34:12.246Z,22.38
2022-09-21T01:36:41.960Z,22.77
2022-09-21T01:39:13.103Z,23.33
2022-09-21T01:41:44.377Z,24.13
2022-09-21T01:44:17.462Z,24.42
2022-09-21T01:46:46.324Z,24.02
2022-09-21T01:49:29.684Z,23.15
2022-09-21T01:52:02.338Z,24.23
2022-09-21T01:54:38.074Z,24.50
2022-09-21T01:57:16.202Z,25.25
2022-09-21T02:00:05.602Z,24.83
2022-09-21T02:02:38.500Z,24.70
2022-09-21T02:05:06.396Z,25.77
2022-09-21T02:07:34.632Z,29.15
2022-09-21T02:10:03.546Z,27.30
2022-09-21T02:12:32.954Z,27.00
2022-09-21T02:15:00.600Z,27.07
2022-09-21T02:17:41.123Z,26.38
2022-09-21T02:20:07.694Z,27.55
2022-09-21T02:23:03.468Z,27.55
2022-09-21T02:25:48.737Z,26.48
2022-09-21T02:28:47.423Z,27.75
2022-09-21T02:31:23.035Z,27.55
2022-09-21T02:34:10.531Z,26.98
2022-09-21T02:36:49.003Z,27.83
2022-09-21T02:39:19.531Z,28.10
2022-09-21T02:42:05.888Z,27.55
2022-09-21T02:44:46.378Z,26.88
2022-09-21T02:47:22.173Z,24.95
2022-09-21T02:49:54.704Z,26.00
2022-09-21T02:52:23.419Z,26.17
2022-09-21T02:54:53.689Z,25.75
2022-09-21T02:59:48.580Z,24.50
2022-09-21T03:02:15.453Z,25.48
2022-09-21T03:04:47.099Z,25.13
2022-09-21T03:07:15.578Z,25.73
2022-09-21T03:09:42.119Z,25.85
2022-09-21T03:12:08.591Z,26.33
2022-09-21T03:14:34.995Z,26.98
2022-09-21T03:17:01.396Z,27.30
2022-09-21T03:19:29.311Z,27.20
2022-09-21T03:21:55.665Z,26.83
2022-09-21T03:24:40.778Z,27.30
2022-09-21T03:27:08.805Z,26.95
2022-09-21T03:29:35.258Z,28.48
2022-09-21T03:32:01.859Z,29.48
2022-09-21T03:34:28.194Z,29.90
2022-09-21T03:36:55.054Z,29.23
2022-09-21T03:39:21.468Z,30.95
2022-09-21T03:41:48.110Z,30.27
2022-09-21T03:44:16.332Z,30.20
2022-09-21T03:46:42.873Z,30.65
2022-09-21T03:49:09.382Z,31.30
2022-09-21T03:51:35.749Z,28.40
2022-09-21T03:54:02.114Z,29.83
2022-09-21T03:56:28.701Z,30.70
2022-09-21T03:58:55.173Z,31.60
2022-09-21T04:01:21.603Z,30.75
2022-09-21T04:03:48.016Z,30.85
2022-09-21T04:06:14.758Z,29.45
2022-09-21T04:08:42.392Z,27.10
2022-09-21T04:11:11.829Z,27.48
2022-09-21T04:13:38.642Z,28.73
2022-09-21T04:16:05.591Z,28.17
2022-09-21T04:18:32.393Z,28.50
2022-09-21T04:20:59.243Z,27.52
2022-09-21T04:23:25.614Z,27.33
2022-09-21T04:25:54.092Z,28.08
2022-09-21T04:28:21.533Z,28.42
2022-09-21T04:30:48.011Z,29.27
2022-09-21T04:33:14.898Z,29.58
2022-09-21T04:35:41.214Z,29.10
2022-09-21T04:38:07.702Z,29.63
2022-09-21T04:40:34.110Z,29.17
2022-09-21T04:43:00.920Z,29.65
2022-09-21T04:45:27.284Z,29.42
2022-09-21T04:47:53.695Z,29.95
2022-09-21T04:50:20.384Z,28.98
2022-09-21T04:52:47.624Z,30.23
2022-09-21T04:55:14.028Z,29.52
2022-09-21T04:57:40.439Z,30.83
2022-09-21T05:00:07.606Z,31.10
2022-09-21T05:02:34.050Z,30.27
2022-09-21T05:05:00.495Z,31.52
2022-09-21T05:07:26.838Z,32.05
2022-09-21T05:10:05.299Z,31.40
2022-09-21T05:12:33.250Z,31.25
2022-09-21T05:14:59.796Z,31.98
2022-09-21T05:17:26.202Z,30.48
2022-09-21T05:19:53.651Z,30.98
2022-09-21T05:22:20.604Z,31.27
2022-09-21T05:24:47.733Z,31.25
2022-09-21T05:27:14.446Z,30.67
2022-09-21T05:29:41.700Z,31.42
2022-09-21T05:32:13.889Z,32.30
2022-09-21T05:34:48.030Z,32.03
2022-09-21T05:37:17.114Z,33.45
2022-09-21T05:39:43.730Z,33.70
2022-09-21T05:42:10.883Z,34.17
2022-09-21T05:44:37.788Z,34.88
2022-09-21T05:47:10.889Z,36.72
2022-09-21T05:49:49.083Z,35.33
2022-09-21T05:52:41.691Z,32.47
2022-09-21T05:55:45.025Z,34.08
2022-09-21T05:58:28.334Z,31.55
2022-09-21T06:01:13.998Z,32.47
2022-09-21T06:03:42.222Z,33.00
2022-09-21T06:06:10.147Z,32.70
2022-09-21T06:08:36.532Z,34.63
2022-09-21T06:11:03.073Z,33.67
2022-09-21T06:13:29.466Z,34.80
2022-09-21T06:15:55.807Z,34.30
2022-09-21T06:18:22.161Z,35.05
2022-09-21T06:20:48.525Z,35.63
2022-09-21T06:23:15.568Z,35.05
2022-09-21T06:25:41.983Z,36.45
2022-09-21T06:28:11.276Z,36.63
2022-09-21T06:30:39.366Z,37.08
2022-09-21T06:33:07.233Z,35.30
2022-09-21T06:35:35.445Z,37.40
2022-09-21T06:38:04.942Z,38.58
2022-09-21T06:40:32.562Z,37.20
2022-09-21T06:43:00.526Z,37.03
2022-09-21T06:45:28.033Z,37.38
2022-09-21T06:47:54.502Z,36.92
2022-09-21T06:50:21.689Z,37.53
2022-09-21T06:52:48.150Z,37.50
2022-09-21T06:55:15.039Z,38.25
2022-09-21T06:57:41.412Z,37.85
2022-09-21T07:00:10.795Z,38.17
2022-09-21T07:02:37.289Z,38.07
2022-09-21T07:05:04.622Z,39.58
2022-09-21T07:07:31.549Z,39.45
2022-09-21T07:10:12.088Z,38.88
2022-09-21T07:12:41.354Z,38.38
2022-09-21T07:15:10.329Z,38.17
2022-09-21T07:17:38.643Z,38.42
2022-09-21T07:20:07.735Z,38.70
2022-09-21T07:22:34.353Z,39.33
2022-09-21T07:25:01.534Z,38.15
2022-09-21T07:27:29.687Z,39.47
2022-09-21T07:29:56.073Z,39.50
2022-09-21T07:32:22.512Z,40.22
2022-09-21T07:34:49.192Z,38.72
2022-09-21T07:37:16.133Z,39.20
2022-09-21T07:39:42.510Z,40.08
2022-09-21T07:42:08.953Z,40.67
2022-09-21T07:44:35.359Z,40.58
2022-09-21T07:47:03.471Z,40.53
2022-09-21T07:49:30.597Z,39.63
2022-09-21T07:52:01.396Z,39.80
2022-09-21T07:54:30.435Z,40.75
2022-09-21T07:57:15.666Z,39.72
2022-09-21T07:59:42.040Z,40.42
2022-09-21T08:02:08.488Z,41.17
2022-09-21T08:04:34.974Z,39.78
2022-09-21T08:07:01.341Z,39.00
2022-09-21T08:09:27.661Z,39.80
2022-09-21T08:11:55.696Z,38.38
2022-09-21T08:14:26.127Z,40.30
2022-09-21T08:16:53.376Z,35.90
2022-09-21T08:19:20.553Z,34.58
2022-09-21T08:21:53.506Z,35.10
2022-09-21T08:24:22.885Z,32.95
2022-09-21T08:26:52.112Z,31.13
2022-09-21T08:29:18.773Z,31.88
2022-09-21T08:31:46.538Z,30.88
2022-09-21T08:34:13.177Z,29.67
2022-09-21T08:36:39.836Z,28.52
2022-09-21T08:39:07.955Z,26.90
2022-09-21T08:41:40.550Z,25.83
2022-09-21T08:44:20.964Z,23.20
2022-09-21T08:47:09.598Z,22.33
2022-09-21T08:49:40.252Z,21.80
2022-09-21T08:52:15.660Z,20.98
2022-09-21T08:54:57.086Z,19.73
2022-09-21T08:57:29.137Z,18.50
2022-09-21T08:59:55.763Z,17.92
2022-09-21T09:02:47.623Z,17.27
2022-09-21T09:05:23.069Z,16.40
2022-09-21T09:07:53.154Z,15.75
2022-09-21T09:10:39.538Z,15.32
2022-09-21T09:13:20.874Z,13.85
2022-09-21T09:15:53.186Z,12.75
2022-09-21T09:18:42.755Z,12.23
2022-09-21T09:23:51.676Z,11.50
2022-09-21T09:26:47.622Z,11.27
2022-09-21T09:29:47.874Z,11.45
2022-09-21T09:34:53.752Z,11.15
2022-09-21T09:37:30.153Z,11.55
2022-09-21T09:40:00.264Z,11.95
2022-09-21T09:43:01.289Z,11.27
2022-09-21T09:45:43.486Z,11.15
2022-09-21T09:48:27.045Z,11.15
2022-09-21T09:50:53.437Z,10.88
2022-09-21T09:53:23.864Z,10.50
2022-09-21T09:55:52.480Z,10.30
2022-09-21T09:58:27.950Z,9.98
2022-09-21T10:00:57.697Z,9.88
2022-09-21T10:03:27.290Z,9.82
2022-09-21T10:05:54.891Z,9.45
2022-09-21T10:08:36.299Z,9.70
2022-09-21T10:11:03.726Z,9.07
2022-09-21T10:13:37.767Z,9.35
2022-09-21T10:16:23.635Z,9.20
2022-09-21T10:18:57.310Z,9.10
2022-09-21T10:21:26.841Z,8.90
2022-09-21T10:23:59.329Z,8.90
2022-09-21T10:26:38.779Z,8.95
2022-09-21T10:29:23.322Z,8.73
2022-09-21T10:32:03.469Z,9.30
2022-09-21T10:34:32.290Z,9.52
2022-09-21T10:37:02.118Z,9.27
2022-09-21T10:39:31.154Z,8.90
2022-09-21T10:42:00.495Z,9.50
2022-09-21T10:44:35.080Z,9.35
2022-09-21T10:47:16.803Z,9.82
2022-09-21T10:49:48.247Z,10.25
2022-09-21T10:52:14.813Z,9.90
2022-09-21T10:54:41.993Z,9.88
2022-09-21T10:57:14.837Z,10.10
2022-09-21T10:59:41.363Z,10.00
2022-09-21T11:02:26.640Z,9.75
2022-09-21T11:05:07.994Z,9.98
2022-09-21T11:07:41.219Z,10.43
2022-09-21T11:10:34.170Z,10.68
2022-09-21T11:13:18.791Z,11.05
2022-09-21T11:16:01.902Z,10.82
2022-09-21T11:18:46.696Z,10.73
2022-09-21T11:21:27.355Z,10.45
2022-09-21T11:24:31.802Z,10.48
2022-09-21T11:27:28.182Z,10.77
2022-09-21T11:30:01.748Z,10.32
2022-09-21T11:33:05.315Z,10.18
2022-09-21T11:35:58.660Z,9.70
2022-09-21T11:38:39.907Z,9.80
2022-09-21T11:41:36.250Z,9.98
2022-09-21T11:44:17.066Z,10.13
2022-09-21T11:47:12.279Z,10.30
2022-09-21T11:49:47.518Z,9.95
2022-09-21T11:52:26.287Z,9.65
2022-09-21T11:55:14.984Z,9.85
2022-09-21T11:57:55.083Z,9.88
2022-09-21T12:00:23.197Z,10.48
2022-09-21T12:03:19.400Z,10.60
2022-09-21T12:05:58.223Z,10.50
2022-09-21T12:08:55.322Z,10.10
2022-09-21T12:11:27.749Z,10.90
2022-09-21T12:14:09.511Z,10.68
2022-09-21T12:16:44.089Z,10.45
2022-09-21T12:19:23.935Z,9.98
2022-09-21T12:24:32.121Z,10.25
2022-09-21T12:27:05.369Z,10.63
2022-09-21T12:29:47.637Z,10.40
2022-09-21T12:32:56.196Z,10.50
2022-09-21T12:35:49.673Z,10.90
2022-09-21T12:38:27.554Z,10.52
2022-09-21T12:41:16.293Z,10.52
2022-09-21T12:43:55.089Z,10.25
2022-09-21T12:46:26.137Z,10.23
2022-09-21T12:48:53.014Z,10.63
2022-09-21T12:51:34.457Z,9.90
2022-09-21T12:54:19.705Z,9.57
2022-09-21T12:57:29.750Z,9.88
2022-09-21T13:00:15.902Z,9.95
2022-09-21T13:03:11.406Z,9.95
2022-09-21T13:06:20.212Z,10.18
2022-09-21T13:11:21.822Z,9.48
2022-09-21T13:13:53.260Z,9.98
2022-09-21T13:16:29.767Z,9.55
2022-09-21T13:19:02.265Z,9.65
2022-09-21T13:21:32.046Z,10.45
2022-09-21T13:23:58.365Z,9.48
2022-09-21T13:26:51.733Z,10.18
2022-09-21T13:29:20.692Z,9.57
2022-09-21T13:32:10.759Z,9.70
2022-09-21T13:34:42.570Z,10.05
2022-09-21T13:37:14.436Z,9.45
2022-09-21T13:40:02.402Z,9.50
2022-09-21T13:42:34.808Z,9.50
2022-09-21T13:45:04.709Z,9.80
2022-09-21T13:47:38.451Z,9.52
2022-09-21T13:50:12.542Z,10.27
2022-09-21T13:52:51.964Z,9.90
2022-09-21T13:55:29.409Z,9.25
2022-09-21T13:57:58.839Z,9.00
2022-09-21T14:00:33.476Z,9.00
2022-09-21T14:03:04.668Z,9.20
2022-09-21T14:05:45.155Z,8.55
2022-09-21T14:08:14.471Z,8.80
2022-09-21T14:10:50.399Z,8.23
2022-09-21T14:13:26.958Z,8.27
2022-09-21T14:15:53.371Z,8.35
2022-09-21T14:18:34.906Z,8.15
2022-09-21T14:21:09.370Z,8.38
2022-09-21T14:23:37.818Z,8.00
2022-09-21T14:26:43.768Z,7.93
2022-09-21T14:29:38.438Z,8.88
2022-09-21T14:32:14.148Z,9.10
2022-09-21T14:34:44.523Z,9.07
2022-09-21T14:37:28.880Z,9.30
2022-09-21T14:39:56.846Z,8.88
2022-09-21T14:42:28.137Z,9.80
2022-09-21T14:45:02.299Z,9.32
2022-09-21T14:47:48.055Z,9.23
2022-09-21T14:50:19.556Z,9.55
2022-09-21T14:53:32.470Z,9.60
2022-09-21T14:56:22.564Z,9.20
2022-09-21T14:59:15.858Z,8.82
2022-09-21T15:01:58.773Z,9.30
2022-09-21T15:04:39.183Z,8.88
2022-09-21T15:07:52.345Z,8.95
2022-09-21T15:10:59.893Z,9.43
2022-09-21T15:13:46.514Z,9.40
2022-09-21T15:16:25.899Z,9.27
2022-09-21T15:19:05.852Z,9.20
2022-09-21T15:24:10.092Z,9.18
2022-09-21T15:26:40.745Z,9.05
2022-09-21T15:29:10.683Z,9.00
2022-09-21T15:31:42.570Z,8.18
2022-09-21T15:34:10.930Z,7.95
2022-09-21T15:36:40.719Z,8.30
2022-09-21T15:39:20.499Z,8.00
2022-09-21T15:41:50.546Z,7.97
2022-09-21T15:44:21.510Z,8.00
2022-09-21T15:46:51.653Z,8.70
2022-09-21T15:49:22.863Z,7.80
2022-09-21T15:51:57.142Z,7.70
2022-09-21T15:54:30.499Z,8.00
2022-09-21T15:57:04.685Z,7.75
2022-09-21T15:59:34.626Z,7.80
2022-09-21T16:02:12.430Z,8.05
2022-09-21T16:04:49.358Z,8.23
2022-09-21T16:07:34.280Z,8.40
2022-09-21T16:10:02.531Z,8.60
2022-09-21T16:12:38.257Z,8.10
2022-09-21T16:15:15.310Z,8.50
2022-09-21T16:17:55.006Z,8.50
2022-09-21T16:20:23.500Z,8.50
2022-09-21T16:22:55.328Z,8.32
2022-09-21T16:25:35.147Z,8.98
2022-09-21T16:28:07.125Z,8.85
2022-09-21T16:30:51.152Z,9.30
2022-09-21T16:33:49.228Z,8.68
2022-09-21T16:36:25.506Z,8.27
2022-09-21T16:38:56.159Z,8.45
2022-09-21T16:41:25.256Z,8.85
2022-09-21T16:43:52.062Z,8.73
2022-09-21T16:46:18.853Z,8.27
2022-09-21T16:48:45.295Z,8.50
2022-09-21T16:51:13.545Z,8.48
2022-09-21T16:53:40.175Z,8.70
2022-09-21T16:56:15.296Z,9.30
2022-09-21T16:58:43.609Z,9.13
2022-09-21T17:01:12.918Z,9.40
2022-09-21T17:03:42.673Z,9.10
2022-09-21T17:06:17.794Z,9.30
2022-09-21T17:08:48.129Z,9.32
2022-09-21T17:11:23.043Z,9.68
2022-09-21T17:13:50.372Z,9.73
2022-09-21T17:16:18.549Z,9.65
2022-09-21T17:18:45.991Z,9.80
2022-09-21T17:21:12.969Z,9.60
2022-09-21T17:23:40.047Z,10.25
2022-09-21T17:26:17.544Z,9.80
2022-09-21T17:28:44.956Z,9.60
2022-09-21T17:31:13.821Z,9.23
2022-09-21T17:33:40.738Z,9.25
2022-09-21T17:36:16.112Z,9.57
2022-09-21T17:38:43.526Z,10.68
2022-09-21T17:41:43.154Z,10.65
2022-09-21T17:44:28.570Z,10.90
2022-09-21T17:46:58.613Z,10.38
2022-09-21T17:49:25.805Z,11.15
2022-09-21T17:52:10.973Z,10.38
2022-09-21T17:54:39.799Z,9.98
2022-09-21T17:57:28.420Z,10.02
2022-09-21T18:00:04.211Z,9.98
2022-09-21T18:02:30.665Z,16.00
2022-09-21T18:05:04.517Z,16.85
2022-09-21T18:07:31.218Z,14.07
2022-09-21T18:09:57.847Z,12.70
2022-09-21T18:12:50.785Z,12.88
2022-09-21T18:15:27.630Z,12.13
2022-09-21T18:18:12.693Z,12.57
2022-09-21T18:21:03.590Z,13.88
2022-09-21T18:23:48.545Z,13.20
2022-09-21T18:26:18.198Z,11.80
2022-09-21T18:28:47.629Z,12.80
2022-09-21T18:31:51.963Z,12.50
2022-09-21T18:34:54.627Z,11.80
2022-09-21T18:37:32.121Z,11.82
2022-09-21T18:40:21.800Z,11.52
2022-09-21T18:43:26.089Z,11.10
2022-09-21T18:46:01.210Z,11.70
2022-09-21T18:48:39.637Z,12.70
2022-09-21T18:51:39.402Z,12.00
2022-09-21T18:54:11.655Z,12.05
2022-09-21T18:56:39.164Z,12.73
2022-09-21T18:59:07.066Z,11.52
2022-09-21T19:01:34.200Z,11.93
2022-09-21T19:04:01.364Z,12.05
2022-09-21T19:06:47.331Z,12.40
2022-09-21T19:09:57.284Z,13.32
2022-09-21T19:12:23.826Z,13.90
2022-09-21T19:15:01.882Z,15.07
2022-09-21T19:18:05.980Z,14.98
2022-09-21T19:20:46.669Z,13.70
2022-09-21T19:23:25.081Z,13.27
2022-09-21T19:25:59.473Z,12.95
2022-09-21T19:28:36.315Z,12.90
2022-09-21T19:31:09.718Z,13.73
2022-09-21T19:33:50.089Z,14.23
2022-09-21T19:36:17.792Z,14.07
2022-09-21T19:38:44.554Z,13.07
2022-09-21T19:41:19.752Z,13.63
2022-09-21T19:43:54.539Z,13.88
2022-09-21T19:46:26.276Z,13.40
2022-09-21T19:48:59.865Z,12.88
2022-09-21T19:51:37.666Z,12.75
2022-09-21T19:54:31.152Z,13.35
2022-09-21T19:57:16.603Z,13.30
2022-09-21T19:59:43.620Z,14.48
2022-09-21T20:02:54.005Z,14.02
2022-09-21T20:08:16.395Z,14.73
2022-09-21T20:10:54.111Z,15.68
2022-09-21T20:13:31.769Z,15.70
2022-09-21T20:16:09.066Z,16.52
2022-09-21T20:18:56.180Z,17.30
2022-09-21T20:21:26.186Z,17.70
2022-09-21T20:23:58.754Z,16.90
2022-09-21T20:26:27.350Z,16.13
2022-09-21T20:28:54.355Z,16.13
2022-09-21T20:31:23.286Z,15.95
2022-09-21T20:33:50.338Z,17.58
2022-09-21T20:36:16.799Z,20.70
2022-09-21T20:38:43.966Z,19.60
2022-09-21T20:41:16.385Z,19.48
2022-09-21T20:43:43.098Z,19.85
2022-09-21T20:46:10.795Z,19.83
2022-09-21T20:48:37.647Z,20.13
2022-09-21T20:51:06.261Z,18.65
2022-09-21T20:53:33.728Z,19.20
2022-09-21T20:56:03.668Z,21.33
2022-09-21T20:58:30.852Z,19.48
2022-09-21T21:01:04.028Z,20.20
2022-09-21T21:03:30.549Z,19.55
2022-09-21T21:06:13.945Z,19.23
2022-09-21T21:08:40.629Z,21.23
2022-09-21T21:11:07.158Z,19.50
2022-09-21T21:13:33.834Z,20.30
2022-09-21T21:16:00.271Z,20.80
2022-09-21T21:18:27.829Z,20.25
2022-09-21T21:20:54.294Z,21.40
2022-09-21T21:23:20.636Z,20.95
2022-09-21T21:25:47.939Z,20.23
2022-09-21T21:28:14.674Z,21.85
2022-09-21T21:30:41.028Z,21.15
2022-09-21T21:33:07.393Z,21.70
2022-09-21T21:35:33.842Z,21.48
2022-09-21T21:38:00.240Z,20.85
2022-09-21T21:40:26.630Z,20.65
2022-09-21T21:42:55.524Z,18.98
2022-09-21T21:45:22.055Z,19.50
2022-09-21T21:47:48.390Z,19.15
2022-09-21T21:50:14.822Z,21.00
2022-09-21T21:52:41.221Z,24.80
2022-09-21T21:55:08.123Z,24.38
2022-09-21T21:57:34.799Z,25.63
2022-09-21T22:00:01.431Z,24.67
2022-09-21T22:02:29.517Z,27.10
2022-09-21T22:04:55.976Z,24.23
2022-09-21T22:07:22.349Z,25.75
2022-09-21T22:09:48.690Z,25.40
2022-09-21T22:12:15.601Z,27.00
2022-09-21T22:14:42.014Z,26.38
2022-09-21T22:17:08.376Z,28.25
2022-09-21T22:19:35.280Z,28.08
2022-09-21T22:22:01.604Z,27.52
2022-09-21T22:24:28.050Z,27.42
2022-09-21T22:26:54.454Z,27.55
2022-09-21T22:29:20.816Z,26.35
2022-09-21T22:31:49.032Z,26.33
2022-09-21T22:34:16.201Z,25.13
2022-09-21T22:36:45.757Z,24.95
2022-09-21T22:39:12.804Z,24.20
2022-09-21T22:41:41.253Z,24.83
2022-09-21T22:44:08.056Z,25.73
2022-09-21T22:46:35.048Z,24.48
2022-09-21T22:49:01.501Z,23.42
2022-09-21T22:51:29.039Z,21.83
2022-09-21T22:53:55.725Z,23.23
2022-09-21T22:56:24.489Z,22.45
2022-09-21T22:58:53.446Z,20.80
2022-09-21T23:01:44.665Z,21.27
2022-09-21T23:04:13.171Z,20.83
2022-09-21T23:06:42.142Z,21.05
2022-09-21T23:09:13.467Z,22.00
2022-09-21T23:11:47.437Z,23.65
2022-09-21T23:14:17.036Z,23.67
2022-09-21T23:16:43.625Z,24.35
2022-09-21T23:19:15.449Z,23.05
2022-09-21T23:21:45.844Z,22.88
2022-09-21T23:24:12.920Z,22.92
2022-09-21T23:26:39.639Z,22.15
2022-09-21T23:29:12.035Z,21.42
2022-09-21T23:31:44.441Z,22.05
2022-09-21T23:34:12.658Z,23.10
2022-09-21T23:36:41.019Z,23.42
2022-09-21T23:39:11.459Z,24.45
2022-09-21T23:41:37.855Z,22.40
2022-09-21T23:44:05.900Z,22.67
2022-09-21T23:46:34.786Z,23.27
2022-09-21T23:49:01.883Z,22.85
2022-09-21T23:51:29.920Z,22.75
2022-09-21T23:53:57.323Z,23.63
2022-09-21T23:56:24.342Z,23.45
2022-09-21T23:58:51.066Z,22.90
